sensor_id;sensor_type;location;lat;lon;timestamp;temperature;humidity
78619;DHT22;67941;52.506;5.470;2024-03-02T00:02:04;9.00;73.20
78619;DHT22;67941;52.506;5.470;2024-03-02T00:04:34;9.10;73.20
78619;DHT22;67941;52.506;5.470;2024-03-02T00:07:03;9.10;73.30
78619;DHT22;67941;52.506;5.470;2024-03-02T00:09:32;9.20;73.30
78619;DHT22;67941;52.506;5.470;2024-03-02T00:12:01;9.30;73.20
78619;DHT22;67941;52.506;5.470;2024-03-02T00:17:24;9.40;73.10
78619;DHT22;67941;52.506;5.470;2024-03-02T00:19:53;9.40;73.10
78619;DHT22;67941;52.506;5.470;2024-03-02T00:22:22;9.50;73.00
78619;DHT22;67941;52.506;5.470;2024-03-02T00:24:50;9.50;72.90
78619;DHT22;67941;52.506;5.470;2024-03-02T00:27:20;9.50;73.00
78619;DHT22;67941;52.506;5.470;2024-03-02T00:29:50;9.60;72.90
78619;DHT22;67941;52.506;5.470;2024-03-02T00:32:22;9.60;72.90
78619;DHT22;67941;52.506;5.470;2024-03-02T00:34:54;9.60;72.90
78619;DHT22;67941;52.506;5.470;2024-03-02T00:37:23;9.60;72.80
78619;DHT22;67941;52.506;5.470;2024-03-02T00:39:51;9.70;72.90
78619;DHT22;67941;52.506;5.470;2024-03-02T00:42:20;9.70;72.80
78619;DHT22;67941;52.506;5.470;2024-03-02T00:44:50;9.70;72.90
78619;DHT22;67941;52.506;5.470;2024-03-02T00:47:21;9.70;72.80
78619;DHT22;67941;52.506;5.470;2024-03-02T00:49:50;9.70;72.80
78619;DHT22;67941;52.506;5.470;2024-03-02T00:52:20;9.70;72.80
78619;DHT22;67941;52.506;5.470;2024-03-02T00:54:55;9.80;72.80
78619;DHT22;67941;52.506;5.470;2024-03-02T00:57:27;9.70;72.80
78619;DHT22;67941;52.506;5.470;2024-03-02T00:59:57;9.80;72.80
78619;DHT22;67941;52.506;5.470;2024-03-02T01:02:29;9.80;72.80
78619;DHT22;67941;52.506;5.470;2024-03-02T01:04:58;9.80;72.80
78619;DHT22;67941;52.506;5.470;2024-03-02T01:07:26;9.80;72.80
78619;DHT22;67941;52.506;5.470;2024-03-02T01:09:55;9.80;72.80
78619;DHT22;67941;52.506;5.470;2024-03-02T01:12:24;9.80;72.80
78619;DHT22;67941;52.506;5.470;2024-03-02T01:14:53;9.70;72.70
78619;DHT22;67941;52.506;5.470;2024-03-02T01:17:22;9.80;72.70
78619;DHT22;67941;52.506;5.470;2024-03-02T01:19:54;9.70;72.60
78619;DHT22;67941;52.506;5.470;2024-03-02T01:22:23;9.70;72.60
78619;DHT22;67941;52.506;5.470;2024-03-02T01:24:52;9.70;72.60
78619;DHT22;67941;52.506;5.470;2024-03-02T01:27:21;9.60;72.70
78619;DHT22;67941;52.506;5.470;2024-03-02T01:29:50;9.60;72.70
78619;DHT22;67941;52.506;5.470;2024-03-02T01:32:20;9.50;72.80
78619;DHT22;67941;52.506;5.470;2024-03-02T01:34:49;9.50;72.80
78619;DHT22;67941;52.506;5.470;2024-03-02T01:37:20;9.40;72.90
78619;DHT22;67941;52.506;5.470;2024-03-02T01:39:49;9.40;72.90
78619;DHT22;67941;52.506;5.470;2024-03-02T01:42:18;9.40;73.00
78619;DHT22;67941;52.506;5.470;2024-03-02T01:44:47;9.30;73.00
78619;DHT22;67941;52.506;5.470;2024-03-02T01:47:16;9.20;73.10
78619;DHT22;67941;52.506;5.470;2024-03-02T01:49:44;9.20;73.20
78619;DHT22;67941;52.506;5.470;2024-03-02T01:52:13;9.20;73.20
78619;DHT22;67941;52.506;5.470;2024-03-02T01:54:45;9.10;73.30
78619;DHT22;67941;52.506;5.470;2024-03-02T01:57:13;9.10;73.30
78619;DHT22;67941;52.506;5.470;2024-03-02T01:59:42;9.00;73.30
78619;DHT22;67941;52.506;5.470;2024-03-02T02:02:13;9.00;73.40
78619;DHT22;67941;52.506;5.470;2024-03-02T02:04:42;9.00;73.40
78619;DHT22;67941;52.506;5.470;2024-03-02T02:07:11;8.90;73.50
78619;DHT22;67941;52.506;5.470;2024-03-02T02:09:40;8.90;73.50
78619;DHT22;67941;52.506;5.470;2024-03-02T02:12:12;8.90;73.50
78619;DHT22;67941;52.506;5.470;2024-03-02T02:14:47;8.80;73.60
78619;DHT22;67941;52.506;5.470;2024-03-02T02:17:17;8.80;73.60
78619;DHT22;67941;52.506;5.470;2024-03-02T02:19:46;8.80;73.60
78619;DHT22;67941;52.506;5.470;2024-03-02T02:22:17;8.80;73.60
78619;DHT22;67941;52.506;5.470;2024-03-02T02:24:46;8.70;73.60
78619;DHT22;67941;52.506;5.470;2024-03-02T02:27:15;8.70;73.60
78619;DHT22;67941;52.506;5.470;2024-03-02T02:29:44;8.60;73.70
78619;DHT22;67941;52.506;5.470;2024-03-02T02:32:13;8.60;73.60
78619;DHT22;67941;52.506;5.470;2024-03-02T02:34:42;8.60;73.70
78619;DHT22;67941;52.506;5.470;2024-03-02T02:37:10;8.60;73.70
78619;DHT22;67941;52.506;5.470;2024-03-02T02:39:42;8.60;73.70
78619;DHT22;67941;52.506;5.470;2024-03-02T02:42:12;8.60;73.80
78619;DHT22;67941;52.506;5.470;2024-03-02T02:44:41;8.60;73.80
78619;DHT22;67941;52.506;5.470;2024-03-02T02:47:10;8.50;73.80
78619;DHT22;67941;52.506;5.470;2024-03-02T02:49:39;8.50;73.90
78619;DHT22;67941;52.506;5.470;2024-03-02T02:52:07;8.50;73.90
78619;DHT22;67941;52.506;5.470;2024-03-02T02:54:37;8.40;73.80
78619;DHT22;67941;52.506;5.470;2024-03-02T02:57:09;8.40;73.80
78619;DHT22;67941;52.506;5.470;2024-03-02T02:59:38;8.30;73.80
78619;DHT22;67941;52.506;5.470;2024-03-02T03:02:06;8.30;73.90
78619;DHT22;67941;52.506;5.470;2024-03-02T03:04:35;8.20;74.00
78619;DHT22;67941;52.506;5.470;2024-03-02T03:07:04;8.10;74.10
78619;DHT22;67941;52.506;5.470;2024-03-02T03:09:33;8.10;74.20
78619;DHT22;67941;52.506;5.470;2024-03-02T03:12:05;8.00;74.30
78619;DHT22;67941;52.506;5.470;2024-03-02T03:14:37;8.00;74.30
78619;DHT22;67941;52.506;5.470;2024-03-02T03:17:06;8.00;74.40
78619;DHT22;67941;52.506;5.470;2024-03-02T03:19:35;8.00;74.40
78619;DHT22;67941;52.506;5.470;2024-03-02T03:22:05;8.00;74.40
78619;DHT22;67941;52.506;5.470;2024-03-02T03:24:34;8.00;74.40
78619;DHT22;67941;52.506;5.470;2024-03-02T03:27:03;8.00;74.40
78619;DHT22;67941;52.506;5.470;2024-03-02T03:29:31;8.00;74.40
78619;DHT22;67941;52.506;5.470;2024-03-02T03:32:03;7.90;74.40
78619;DHT22;67941;52.506;5.470;2024-03-02T03:34:32;7.80;74.50
78619;DHT22;67941;52.506;5.470;2024-03-02T03:37:01;7.80;74.50
78619;DHT22;67941;52.506;5.470;2024-03-02T03:39:30;7.80;74.50
78619;DHT22;67941;52.506;5.470;2024-03-02T03:41:59;7.70;74.60
78619;DHT22;67941;52.506;5.470;2024-03-02T03:44:28;7.60;74.60
78619;DHT22;67941;52.506;5.470;2024-03-02T03:46:57;7.60;74.70
78619;DHT22;67941;52.506;5.470;2024-03-02T03:49:29;7.60;74.70
78619;DHT22;67941;52.506;5.470;2024-03-02T03:51:58;7.50;74.80
78619;DHT22;67941;52.506;5.470;2024-03-02T03:54:27;7.50;74.90
78619;DHT22;67941;52.506;5.470;2024-03-02T03:56:55;7.50;74.90
78619;DHT22;67941;52.506;5.470;2024-03-02T03:59:25;7.50;75.00
78619;DHT22;67941;52.506;5.470;2024-03-02T04:01:53;7.50;75.00
78619;DHT22;67941;52.506;5.470;2024-03-02T04:04:22;7.50;74.90
78619;DHT22;67941;52.506;5.470;2024-03-02T04:06:54;7.50;74.80
78619;DHT22;67941;52.506;5.470;2024-03-02T04:09:22;7.50;74.80
78619;DHT22;67941;52.506;5.470;2024-03-02T04:11:51;7.50;74.70
78619;DHT22;67941;52.506;5.470;2024-03-02T04:14:20;7.50;74.70
78619;DHT22;67941;52.506;5.470;2024-03-02T04:16:49;7.40;74.80
78619;DHT22;67941;52.506;5.470;2024-03-02T04:19:18;7.30;74.80
78619;DHT22;67941;52.506;5.470;2024-03-02T04:21:47;7.20;75.00
78619;DHT22;67941;52.506;5.470;2024-03-02T04:24:18;7.20;75.00
78619;DHT22;67941;52.506;5.470;2024-03-02T04:26:47;7.20;75.00
78619;DHT22;67941;52.506;5.470;2024-03-02T04:29:16;7.10;75.00
78619;DHT22;67941;52.506;5.470;2024-03-02T04:31:44;7.10;75.00
78619;DHT22;67941;52.506;5.470;2024-03-02T04:34:13;7.00;75.10
78619;DHT22;67941;52.506;5.470;2024-03-02T04:36:42;7.00;75.20
78619;DHT22;67941;52.506;5.470;2024-03-02T04:39:11;7.00;75.10
78619;DHT22;67941;52.506;5.470;2024-03-02T04:41:42;7.00;75.10
78619;DHT22;67941;52.506;5.470;2024-03-02T04:44:11;7.00;75.20
78619;DHT22;67941;52.506;5.470;2024-03-02T04:46:40;6.90;75.30
78619;DHT22;67941;52.506;5.470;2024-03-02T04:49:09;7.00;75.40
78619;DHT22;67941;52.506;5.470;2024-03-02T04:51:38;7.00;75.50
78619;DHT22;67941;52.506;5.470;2024-03-02T04:54:07;7.00;75.60
78619;DHT22;67941;52.506;5.470;2024-03-02T04:56:35;7.10;75.60
78619;DHT22;67941;52.506;5.470;2024-03-02T04:59:18;7.20;75.60
78619;DHT22;67941;52.506;5.470;2024-03-02T05:01:47;7.20;75.50
78619;DHT22;67941;52.506;5.470;2024-03-02T05:04:16;7.30;75.40
78619;DHT22;67941;52.506;5.470;2024-03-02T05:06:44;7.30;75.40
78619;DHT22;67941;52.506;5.470;2024-03-02T05:09:18;7.40;75.20
78619;DHT22;67941;52.506;5.470;2024-03-02T05:11:47;7.30;75.20
78619;DHT22;67941;52.506;5.470;2024-03-02T05:14:39;7.20;75.10
78619;DHT22;67941;52.506;5.470;2024-03-02T05:17:08;7.20;75.20
78619;DHT22;67941;52.506;5.470;2024-03-02T05:19:37;7.20;75.30
78619;DHT22;67941;52.506;5.470;2024-03-02T05:22:06;7.20;75.40
78619;DHT22;67941;52.506;5.470;2024-03-02T05:24:34;7.10;75.30
78619;DHT22;67941;52.506;5.470;2024-03-02T05:27:03;7.00;75.30
78619;DHT22;67941;52.506;5.470;2024-03-02T05:29:33;7.00;75.30
78619;DHT22;67941;52.506;5.470;2024-03-02T05:32:04;7.00;75.40
78619;DHT22;67941;52.506;5.470;2024-03-02T05:34:33;7.00;75.50
78619;DHT22;67941;52.506;5.470;2024-03-02T05:37:03;6.90;75.50
78619;DHT22;67941;52.506;5.470;2024-03-02T05:39:32;6.90;75.50
78619;DHT22;67941;52.506;5.470;2024-03-02T05:42:00;6.90;75.40
78619;DHT22;67941;52.506;5.470;2024-03-02T05:44:29;6.90;75.40
78619;DHT22;67941;52.506;5.470;2024-03-02T05:46:58;6.80;75.30
78619;DHT22;67941;52.506;5.470;2024-03-02T05:49:30;6.70;75.30
78619;DHT22;67941;52.506;5.470;2024-03-02T05:51:58;6.70;75.30
78619;DHT22;67941;52.506;5.470;2024-03-02T05:54:27;6.60;75.40
78619;DHT22;67941;52.506;5.470;2024-03-02T05:56:56;6.60;75.40
78619;DHT22;67941;52.506;5.470;2024-03-02T05:59:42;6.50;75.40
78619;DHT22;67941;52.506;5.470;2024-03-02T06:02:11;6.50;75.50
78619;DHT22;67941;52.506;5.470;2024-03-02T06:04:42;6.40;75.50
78619;DHT22;67941;52.506;5.470;2024-03-02T06:07:11;6.40;75.50
78619;DHT22;67941;52.506;5.470;2024-03-02T06:09:41;6.30;75.50
78619;DHT22;67941;52.506;5.470;2024-03-02T06:12:10;6.30;75.50
78619;DHT22;67941;52.506;5.470;2024-03-02T06:14:39;6.30;75.50
78619;DHT22;67941;52.506;5.470;2024-03-02T06:17:08;6.20;75.50
78619;DHT22;67941;52.506;5.470;2024-03-02T06:19:37;6.20;75.50
78619;DHT22;67941;52.506;5.470;2024-03-02T06:22:08;6.20;75.50
78619;DHT22;67941;52.506;5.470;2024-03-02T06:24:37;6.10;75.60
78619;DHT22;67941;52.506;5.470;2024-03-02T06:27:06;6.10;75.60
78619;DHT22;67941;52.506;5.470;2024-03-02T06:29:35;6.10;75.50
78619;DHT22;67941;52.506;5.470;2024-03-02T06:32:04;6.10;75.60
78619;DHT22;67941;52.506;5.470;2024-03-02T06:34:33;6.00;75.50
78619;DHT22;67941;52.506;5.470;2024-03-02T06:37:02;6.00;75.70
78619;DHT22;67941;52.506;5.470;2024-03-02T06:39:34;6.00;75.60
78619;DHT22;67941;52.506;5.470;2024-03-02T06:42:03;6.00;75.60
78619;DHT22;67941;52.506;5.470;2024-03-02T06:44:32;6.00;75.70
78619;DHT22;67941;52.506;5.470;2024-03-02T06:47:01;6.00;75.70
78619;DHT22;67941;52.506;5.470;2024-03-02T06:49:30;5.90;75.70
78619;DHT22;67941;52.506;5.470;2024-03-02T06:52:00;6.00;75.70
78619;DHT22;67941;52.506;5.470;2024-03-02T06:54:29;5.90;75.70
78619;DHT22;67941;52.506;5.470;2024-03-02T06:57:00;6.00;75.90
78619;DHT22;67941;52.506;5.470;2024-03-02T06:59:32;6.00;76.00
78619;DHT22;67941;52.506;5.470;2024-03-02T07:02:01;6.10;76.10
78619;DHT22;67941;52.506;5.470;2024-03-02T07:04:29;6.20;76.10
78619;DHT22;67941;52.506;5.470;2024-03-02T07:06:58;6.30;76.10
78619;DHT22;67941;52.506;5.470;2024-03-02T07:09:27;6.50;76.00
78619;DHT22;67941;52.506;5.470;2024-03-02T07:11:56;6.60;76.00
78619;DHT22;67941;52.506;5.470;2024-03-02T07:14:27;6.70;76.00
78619;DHT22;67941;52.506;5.470;2024-03-02T07:17:21;6.70;75.90
78619;DHT22;67941;52.506;5.470;2024-03-02T07:19:50;6.80;75.80
78619;DHT22;67941;52.506;5.470;2024-03-02T07:22:19;6.80;75.70
78619;DHT22;67941;52.506;5.470;2024-03-02T07:24:49;6.90;75.70
78619;DHT22;67941;52.506;5.470;2024-03-02T07:27:18;6.90;75.70
78619;DHT22;67941;52.506;5.470;2024-03-02T07:29:49;6.90;75.70
78619;DHT22;67941;52.506;5.470;2024-03-02T07:32:18;6.90;75.70
78619;DHT22;67941;52.506;5.470;2024-03-02T07:34:47;6.90;75.70
78619;DHT22;67941;52.506;5.470;2024-03-02T07:37:17;6.80;75.70
78619;DHT22;67941;52.506;5.470;2024-03-02T07:39:46;6.80;75.70
78619;DHT22;67941;52.506;5.470;2024-03-02T07:42:15;6.80;75.70
78619;DHT22;67941;52.506;5.470;2024-03-02T07:44:44;6.80;75.80
78619;DHT22;67941;52.506;5.470;2024-03-02T07:47:15;6.80;75.80
78619;DHT22;67941;52.506;5.470;2024-03-02T07:49:47;6.90;75.90
78619;DHT22;67941;52.506;5.470;2024-03-02T07:52:16;6.90;75.90
78619;DHT22;67941;52.506;5.470;2024-03-02T07:54:45;6.90;75.90
78619;DHT22;67941;52.506;5.470;2024-03-02T07:57:14;6.90;75.90
78619;DHT22;67941;52.506;5.470;2024-03-02T07:59:43;7.00;76.00
78619;DHT22;67941;52.506;5.470;2024-03-02T08:02:12;7.00;75.90
78619;DHT22;67941;52.506;5.470;2024-03-02T08:04:43;7.00;75.90
78619;DHT22;67941;52.506;5.470;2024-03-02T08:07:12;7.10;76.00
78619;DHT22;67941;52.506;5.470;2024-03-02T08:09:41;7.10;76.00
78619;DHT22;67941;52.506;5.470;2024-03-02T08:12:10;7.20;76.00
78619;DHT22;67941;52.506;5.470;2024-03-02T08:14:39;7.20;75.90
78619;DHT22;67941;52.506;5.470;2024-03-02T08:17:07;7.20;75.90
78619;DHT22;67941;52.506;5.470;2024-03-02T08:19:37;7.30;75.90
78619;DHT22;67941;52.506;5.470;2024-03-02T08:22:09;7.40;75.90
78619;DHT22;67941;52.506;5.470;2024-03-02T08:24:38;7.40;76.00
78619;DHT22;67941;52.506;5.470;2024-03-02T08:27:07;7.40;76.00
78619;DHT22;67941;52.506;5.470;2024-03-02T08:29:36;7.50;76.00
78619;DHT22;67941;52.506;5.470;2024-03-02T08:32:06;7.50;76.00
78619;DHT22;67941;52.506;5.470;2024-03-02T08:34:34;7.50;76.00
78619;DHT22;67941;52.506;5.470;2024-03-02T08:37:04;7.50;76.00
78619;DHT22;67941;52.506;5.470;2024-03-02T08:39:35;7.60;76.00
78619;DHT22;67941;52.506;5.470;2024-03-02T08:42:05;7.60;76.00
78619;DHT22;67941;52.506;5.470;2024-03-02T08:47:18;7.60;75.90
78619;DHT22;67941;52.506;5.470;2024-03-02T08:49:47;7.70;75.90
78619;DHT22;67941;52.506;5.470;2024-03-02T08:52:15;7.80;75.90
78619;DHT22;67941;52.506;5.470;2024-03-02T08:54:47;7.80;75.90
78619;DHT22;67941;52.506;5.470;2024-03-02T08:57:16;7.80;75.90
78619;DHT22;67941;52.506;5.470;2024-03-02T08:59:44;7.80;75.90
78619;DHT22;67941;52.506;5.470;2024-03-02T09:02:13;7.80;75.80
78619;DHT22;67941;52.506;5.470;2024-03-02T09:04:42;7.90;75.80
78619;DHT22;67941;52.506;5.470;2024-03-02T09:07:14;7.90;75.80
78619;DHT22;67941;52.506;5.470;2024-03-02T09:09:43;8.00;75.80
78619;DHT22;67941;52.506;5.470;2024-03-02T09:12:14;8.00;75.80
78619;DHT22;67941;52.506;5.470;2024-03-02T09:14:43;8.00;75.80
78619;DHT22;67941;52.506;5.470;2024-03-02T09:17:12;8.00;75.80
78619;DHT22;67941;52.506;5.470;2024-03-02T09:19:41;8.00;75.70
78619;DHT22;67941;52.506;5.470;2024-03-02T09:22:10;8.00;75.60
78619;DHT22;67941;52.506;5.470;2024-03-02T09:24:39;8.00;75.70
78619;DHT22;67941;52.506;5.470;2024-03-02T09:27:09;8.10;75.60
78619;DHT22;67941;52.506;5.470;2024-03-02T09:29:41;8.10;75.60
78619;DHT22;67941;52.506;5.470;2024-03-02T09:32:13;8.10;75.60
78619;DHT22;67941;52.506;5.470;2024-03-02T09:34:42;8.10;75.60
78619;DHT22;67941;52.506;5.470;2024-03-02T09:37:10;8.20;75.70
78619;DHT22;67941;52.506;5.470;2024-03-02T09:39:39;8.20;75.60
78619;DHT22;67941;52.506;5.470;2024-03-02T09:42:08;8.20;75.60
78619;DHT22;67941;52.506;5.470;2024-03-02T09:44:37;8.20;75.60
78619;DHT22;67941;52.506;5.470;2024-03-02T09:47:09;8.30;75.60
78619;DHT22;67941;52.506;5.470;2024-03-02T09:49:38;8.30;75.50
78619;DHT22;67941;52.506;5.470;2024-03-02T09:52:10;8.40;75.40
78619;DHT22;67941;52.506;5.470;2024-03-02T09:54:39;8.40;75.40
78619;DHT22;67941;52.506;5.470;2024-03-02T09:57:08;8.40;75.40
78619;DHT22;67941;52.506;5.470;2024-03-02T09:59:38;8.50;75.30
78619;DHT22;67941;52.506;5.470;2024-03-02T10:02:09;8.50;75.30
78619;DHT22;67941;52.506;5.470;2024-03-02T10:04:40;8.60;75.20
78619;DHT22;67941;52.506;5.470;2024-03-02T10:07:12;8.60;75.20
78619;DHT22;67941;52.506;5.470;2024-03-02T10:09:38;8.60;75.10
78619;DHT22;67941;52.506;5.470;2024-03-02T10:12:09;8.60;75.10
78619;DHT22;67941;52.506;5.470;2024-03-02T10:14:38;8.70;75.00
78619;DHT22;67941;52.506;5.470;2024-03-02T10:17:10;8.80;75.00
78619;DHT22;67941;52.506;5.470;2024-03-02T10:19:40;8.80;75.00
78619;DHT22;67941;52.506;5.470;2024-03-02T10:22:12;8.90;75.00
78619;DHT22;67941;52.506;5.470;2024-03-02T10:24:42;8.90;75.00
78619;DHT22;67941;52.506;5.470;2024-03-02T10:27:15;9.00;74.90
78619;DHT22;67941;52.506;5.470;2024-03-02T10:29:46;9.00;74.80
78619;DHT22;67941;52.506;5.470;2024-03-02T10:32:18;9.00;74.70
78619;DHT22;67941;52.506;5.470;2024-03-02T10:34:47;9.00;74.60
78619;DHT22;67941;52.506;5.470;2024-03-02T10:37:16;9.00;74.60
78619;DHT22;67941;52.506;5.470;2024-03-02T10:39:46;9.10;74.60
78619;DHT22;67941;52.506;5.470;2024-03-02T10:42:15;9.10;74.60
78619;DHT22;67941;52.506;5.470;2024-03-02T10:44:45;9.20;74.50
78619;DHT22;67941;52.506;5.470;2024-03-02T10:47:14;9.20;74.40
78619;DHT22;67941;52.506;5.470;2024-03-02T10:49:47;9.20;74.30
78619;DHT22;67941;52.506;5.470;2024-03-02T10:52:17;9.20;74.20
78619;DHT22;67941;52.506;5.470;2024-03-02T10:54:48;9.30;74.20
78619;DHT22;67941;52.506;5.470;2024-03-02T10:57:21;9.40;74.10
78619;DHT22;67941;52.506;5.470;2024-03-02T10:59:53;9.40;74.00
78619;DHT22;67941;52.506;5.470;2024-03-02T11:02:25;9.40;73.90
78619;DHT22;67941;52.506;5.470;2024-03-02T11:05:00;9.40;73.80
78619;DHT22;67941;52.506;5.470;2024-03-02T11:07:37;9.40;73.80
78619;DHT22;67941;52.506;5.470;2024-03-02T11:10:08;9.40;73.80
78619;DHT22;67941;52.506;5.470;2024-03-02T11:12:39;9.50;73.70
78619;DHT22;67941;52.506;5.470;2024-03-02T11:15:18;9.50;73.60
78619;DHT22;67941;52.506;5.470;2024-03-02T11:17:48;9.50;73.50
78619;DHT22;67941;52.506;5.470;2024-03-02T11:20:20;9.50;73.50
78619;DHT22;67941;52.506;5.470;2024-03-02T11:22:50;9.60;73.40
78619;DHT22;67941;52.506;5.470;2024-03-02T11:25:26;9.60;73.50
78619;DHT22;67941;52.506;5.470;2024-03-02T11:28:03;9.60;73.50
78619;DHT22;67941;52.506;5.470;2024-03-02T11:30:49;9.70;73.50
78619;DHT22;67941;52.506;5.470;2024-03-02T11:33:23;9.70;73.50
78619;DHT22;67941;52.506;5.470;2024-03-02T11:36:15;9.70;73.40
78619;DHT22;67941;52.506;5.470;2024-03-02T11:38:47;9.80;73.40
78619;DHT22;67941;52.506;5.470;2024-03-02T11:41:19;9.80;73.20
78619;DHT22;67941;52.506;5.470;2024-03-02T11:43:48;9.90;73.20
78619;DHT22;67941;52.506;5.470;2024-03-02T11:46:17;10.00;73.00
78619;DHT22;67941;52.506;5.470;2024-03-02T11:48:46;10.00;72.90
78619;DHT22;67941;52.506;5.470;2024-03-02T11:51:18;10.00;72.90
78619;DHT22;67941;52.506;5.470;2024-03-02T11:53:47;10.00;72.90
78619;DHT22;67941;52.506;5.470;2024-03-02T11:56:26;10.00;72.90
78619;DHT22;67941;52.506;5.470;2024-03-02T11:58:55;10.10;73.00
78619;DHT22;67941;52.506;5.470;2024-03-02T12:01:24;10.10;73.00
78619;DHT22;67941;52.506;5.470;2024-03-02T12:03:54;10.10;72.90
78619;DHT22;67941;52.506;5.470;2024-03-02T12:06:26;10.20;72.90
78619;DHT22;67941;52.506;5.470;2024-03-02T12:08:56;10.20;72.90
78619;DHT22;67941;52.506;5.470;2024-03-02T12:11:26;10.20;72.90
78619;DHT22;67941;52.506;5.470;2024-03-02T12:13:55;10.20;72.90
78619;DHT22;67941;52.506;5.470;2024-03-02T12:16:25;10.30;72.90
78619;DHT22;67941;52.506;5.470;2024-03-02T12:18:55;10.30;72.90
78619;DHT22;67941;52.506;5.470;2024-03-02T12:21:26;10.30;72.90
78619;DHT22;67941;52.506;5.470;2024-03-02T12:23:55;10.30;72.80
78619;DHT22;67941;52.506;5.470;2024-03-02T12:26:24;10.30;72.80
78619;DHT22;67941;52.506;5.470;2024-03-02T12:28:53;10.40;72.70
78619;DHT22;67941;52.506;5.470;2024-03-02T12:31:22;10.40;72.50
78619;DHT22;67941;52.506;5.470;2024-03-02T12:33:51;10.40;72.40
78619;DHT22;67941;52.506;5.470;2024-03-02T12:36:20;10.40;72.40
78619;DHT22;67941;52.506;5.470;2024-03-02T12:38:52;10.50;72.30
78619;DHT22;67941;52.506;5.470;2024-03-02T12:41:21;10.50;72.20
78619;DHT22;67941;52.506;5.470;2024-03-02T12:43:50;10.50;72.10
78619;DHT22;67941;52.506;5.470;2024-03-02T12:46:24;10.60;72.40
78619;DHT22;67941;52.506;5.470;2024-03-02T12:48:53;10.60;72.30
78619;DHT22;67941;52.506;5.470;2024-03-02T12:51:22;10.70;72.30
78619;DHT22;67941;52.506;5.470;2024-03-02T12:53:57;10.70;72.30
78619;DHT22;67941;52.506;5.470;2024-03-02T12:56:31;10.70;72.20
78619;DHT22;67941;52.506;5.470;2024-03-02T12:59:01;10.80;72.10
78619;DHT22;67941;52.506;5.470;2024-03-02T13:01:30;10.80;72.20
78619;DHT22;67941;52.506;5.470;2024-03-02T13:03:59;10.90;72.20
78619;DHT22;67941;52.506;5.470;2024-03-02T13:06:29;10.90;72.10
78619;DHT22;67941;52.506;5.470;2024-03-02T13:09:00;11.00;71.90
78619;DHT22;67941;52.506;5.470;2024-03-02T13:11:29;11.10;71.90
78619;DHT22;67941;52.506;5.470;2024-03-02T13:14:00;11.10;71.90
78619;DHT22;67941;52.506;5.470;2024-03-02T13:16:29;11.10;71.90
78619;DHT22;67941;52.506;5.470;2024-03-02T13:18:58;11.10;71.80
78619;DHT22;67941;52.506;5.470;2024-03-02T13:21:27;11.20;71.70
78619;DHT22;67941;52.506;5.470;2024-03-02T13:23:56;11.30;71.60
78619;DHT22;67941;52.506;5.470;2024-03-02T13:26:28;11.30;71.60
78619;DHT22;67941;52.506;5.470;2024-03-02T13:28:57;11.30;71.60
78619;DHT22;67941;52.506;5.470;2024-03-02T13:31:26;11.30;71.50
78619;DHT22;67941;52.506;5.470;2024-03-02T13:33:55;11.40;71.40
78619;DHT22;67941;52.506;5.470;2024-03-02T13:36:24;11.30;71.40
78619;DHT22;67941;52.506;5.470;2024-03-02T13:38:53;11.40;71.30
78619;DHT22;67941;52.506;5.470;2024-03-02T13:41:24;11.40;71.10
78619;DHT22;67941;52.506;5.470;2024-03-02T13:43:56;11.40;71.10
78619;DHT22;67941;52.506;5.470;2024-03-02T13:46:27;11.40;71.10
78619;DHT22;67941;52.506;5.470;2024-03-02T13:48:56;11.40;71.00
78619;DHT22;67941;52.506;5.470;2024-03-02T13:51:25;11.40;71.00
78619;DHT22;67941;52.506;5.470;2024-03-02T13:53:54;11.40;71.00
78619;DHT22;67941;52.506;5.470;2024-03-02T13:56:23;11.40;71.00
78619;DHT22;67941;52.506;5.470;2024-03-02T13:58:52;11.40;70.90
78619;DHT22;67941;52.506;5.470;2024-03-02T14:01:23;11.50;70.80
78619;DHT22;67941;52.506;5.470;2024-03-02T14:03:52;11.50;70.80
78619;DHT22;67941;52.506;5.470;2024-03-02T14:06:22;11.50;70.70
78619;DHT22;67941;52.506;5.470;2024-03-02T14:08:52;11.50;70.70
78619;DHT22;67941;52.506;5.470;2024-03-02T14:11:21;11.50;70.60
78619;DHT22;67941;52.506;5.470;2024-03-02T14:13:50;11.50;70.70
78619;DHT22;67941;52.506;5.470;2024-03-02T14:16:22;11.50;70.70
78619;DHT22;67941;52.506;5.470;2024-03-02T14:18:51;11.50;70.60
78619;DHT22;67941;52.506;5.470;2024-03-02T14:21:20;11.50;70.50
78619;DHT22;67941;52.506;5.470;2024-03-02T14:23:49;11.50;70.60
78619;DHT22;67941;52.506;5.470;2024-03-02T14:26:18;11.50;70.50
78619;DHT22;67941;52.506;5.470;2024-03-02T14:28:47;11.50;70.50
78619;DHT22;67941;52.506;5.470;2024-03-02T14:31:16;11.60;70.50
78619;DHT22;67941;52.506;5.470;2024-03-02T14:33:48;11.60;70.50
78619;DHT22;67941;52.506;5.470;2024-03-02T14:36:17;11.60;70.50
78619;DHT22;67941;52.506;5.470;2024-03-02T14:38:46;11.60;70.40
78619;DHT22;67941;52.506;5.470;2024-03-02T14:41:15;11.60;70.40
78619;DHT22;67941;52.506;5.470;2024-03-02T14:43:44;11.60;70.40
78619;DHT22;67941;52.506;5.470;2024-03-02T14:46:13;11.60;70.40
78619;DHT22;67941;52.506;5.470;2024-03-02T14:48:44;11.70;70.20
78619;DHT22;67941;52.506;5.470;2024-03-02T14:51:16;11.70;70.30
78619;DHT22;67941;52.506;5.470;2024-03-02T14:53:45;11.70;70.30
78619;DHT22;67941;52.506;5.470;2024-03-02T14:56:14;11.80;70.30
78619;DHT22;67941;52.506;5.470;2024-03-02T14:58:43;11.90;70.30
78619;DHT22;67941;52.506;5.470;2024-03-02T15:01:12;12.00;70.20
78619;DHT22;67941;52.506;5.470;2024-03-02T15:03:41;12.00;70.00
78619;DHT22;67941;52.506;5.470;2024-03-02T15:06:10;12.00;69.90
78619;DHT22;67941;52.506;5.470;2024-03-02T15:08:42;12.00;69.90
78619;DHT22;67941;52.506;5.470;2024-03-02T15:11:12;12.00;69.90
78619;DHT22;67941;52.506;5.470;2024-03-02T15:13:42;12.00;69.90
78619;DHT22;67941;52.506;5.470;2024-03-02T15:16:11;12.00;69.90
78619;DHT22;67941;52.506;5.470;2024-03-02T15:18:40;12.00;70.00
78619;DHT22;67941;52.506;5.470;2024-03-02T15:21:09;12.00;70.10
78619;DHT22;67941;52.506;5.470;2024-03-02T15:23:37;12.00;70.10
78619;DHT22;67941;52.506;5.470;2024-03-02T15:26:09;12.00;70.00
78619;DHT22;67941;52.506;5.470;2024-03-02T15:28:38;12.00;70.00
78619;DHT22;67941;52.506;5.470;2024-03-02T15:31:07;12.00;69.90
78619;DHT22;67941;52.506;5.470;2024-03-02T15:33:35;12.00;69.90
78619;DHT22;67941;52.506;5.470;2024-03-02T15:36:05;11.90;69.80
78619;DHT22;67941;52.506;5.470;2024-03-02T15:38:52;11.90;69.80
78619;DHT22;67941;52.506;5.470;2024-03-02T15:41:40;11.90;69.80
78619;DHT22;67941;52.506;5.470;2024-03-02T15:44:09;11.80;69.70
78619;DHT22;67941;52.506;5.470;2024-03-02T15:46:38;11.70;69.60
78619;DHT22;67941;52.506;5.470;2024-03-02T15:49:07;11.70;69.70
78619;DHT22;67941;52.506;5.470;2024-03-02T15:51:36;11.70;69.60
78619;DHT22;67941;52.506;5.470;2024-03-02T15:54:07;11.70;69.60
78619;DHT22;67941;52.506;5.470;2024-03-02T15:56:38;11.60;69.60
78619;DHT22;67941;52.506;5.470;2024-03-02T15:59:07;11.60;69.60
78619;DHT22;67941;52.506;5.470;2024-03-02T16:01:38;11.50;69.60
78619;DHT22;67941;52.506;5.470;2024-03-02T16:04:09;11.50;69.60
78619;DHT22;67941;52.506;5.470;2024-03-02T16:06:38;11.50;69.60